createdAt,value
2023-04-27T00:02:22.999Z,4.15
2023-04-27T00:07:19.493Z,4.60
2023-04-27T00:12:15.880Z,4.35
2023-04-27T00:17:12.332Z,4.82
2023-04-27T00:22:09.374Z,4.45
2023-04-27T00:27:05.801Z,5.53
2023-04-27T00:32:02.348Z,5.00
2023-04-27T00:36:58.809Z,4.72
2023-04-27T00:41:55.334Z,5.53
2023-04-27T00:46:55.428Z,4.47
2023-04-27T00:51:51.847Z,4.80
2023-04-27T00:56:50.040Z,4.72
2023-04-27T01:01:47.222Z,5.10
2023-04-27T01:06:43.945Z,4.68
2023-04-27T01:11:40.440Z,5.00
2023-04-27T01:16:37.401Z,5.32
2023-04-27T01:21:34.108Z,4.80
2023-04-27T01:26:30.573Z,5.38
2023-04-27T01:31:27.040Z,5.03
2023-04-27T01:36:23.517Z,4.72
2023-04-27T01:41:19.892Z,4.97
2023-04-27T01:46:16.386Z,5.50
2023-04-27T01:51:12.988Z,5.10
2023-04-27T01:56:10.169Z,4.88
2023-04-27T02:01:06.558Z,5.13
2023-04-27T02:06:06.400Z,5.68
2023-04-27T02:11:02.957Z,4.70
2023-04-27T02:16:04.191Z,4.82
2023-04-27T02:21:01.019Z,5.07
2023-04-27T02:25:57.430Z,5.05
2023-04-27T02:30:53.997Z,4.88
2023-04-27T02:35:50.458Z,5.07
2023-04-27T02:40:47.036Z,4.80
2023-04-27T02:45:43.464Z,5.70
2023-04-27T02:50:44.160Z,4.78
2023-04-27T02:55:47.112Z,5.40
2023-04-27T03:00:43.902Z,5.32
2023-04-27T03:05:40.924Z,5.30
2023-04-27T03:10:37.382Z,5.55
2023-04-27T03:15:34.635Z,5.93
2023-04-27T03:20:31.911Z,5.38
2023-04-27T03:25:28.338Z,5.78
2023-04-27T03:30:24.761Z,5.15
2023-04-27T03:35:21.480Z,5.15
2023-04-27T03:40:17.904Z,5.70
2023-04-27T03:45:16.684Z,6.90
2023-04-27T03:50:13.129Z,5.53
2023-04-27T03:55:10.887Z,5.47
2023-04-27T04:00:11.583Z,6.38
2023-04-27T04:05:09.866Z,6.35
2023-04-27T04:10:09.379Z,6.85
2023-04-27T04:15:07.703Z,5.47
2023-04-27T04:20:10.626Z,5.60
2023-04-27T04:25:07.444Z,6.55
2023-04-27T04:30:06.455Z,7.22
2023-04-27T04:35:05.120Z,8.10
2023-04-27T04:40:09.076Z,7.13
2023-04-27T04:45:07.035Z,8.00
2023-04-27T04:50:03.997Z,8.15
2023-04-27T04:55:00.732Z,7.10
2023-04-27T04:59:57.648Z,8.30
2023-04-27T05:04:54.199Z,9.15
2023-04-27T05:09:50.701Z,8.80
2023-04-27T05:14:48.274Z,9.02
2023-04-27T05:19:44.966Z,8.18
2023-04-27T05:24:41.728Z,8.45
2023-04-27T05:29:38.205Z,8.27
2023-04-27T05:34:34.885Z,8.80
2023-04-27T05:39:32.663Z,8.57
2023-04-27T05:44:35.837Z,7.88
2023-04-27T05:49:35.762Z,8.32
2023-04-27T05:54:37.385Z,8.45
2023-04-27T05:59:47.160Z,8.20
2023-04-27T06:04:49.971Z,8.27
2023-04-27T06:09:47.704Z,8.27
2023-04-27T06:14:52.356Z,6.65
2023-04-27T06:19:54.453Z,7.60
2023-04-27T06:24:57.643Z,7.63
2023-04-27T06:29:56.873Z,7.50
2023-04-27T06:34:53.735Z,6.95
2023-04-27T06:39:53.253Z,7.22
2023-04-27T06:44:54.210Z,7.30
2023-04-27T06:49:51.275Z,6.80
2023-04-27T06:54:59.121Z,6.90
2023-04-27T06:59:59.142Z,7.22
2023-04-27T07:04:59.110Z,7.05
2023-04-27T07:09:58.215Z,6.93
2023-04-27T07:15:04.571Z,6.82
2023-04-27T07:20:05.008Z,7.10
2023-04-27T07:25:10.794Z,6.47
2023-04-27T07:30:13.484Z,6.45
2023-04-27T07:35:15.224Z,5.45
2023-04-27T07:40:19.864Z,5.83
2023-04-27T07:45:32.679Z,6.90
2023-04-27T07:50:33.940Z,5.88
2023-04-27T07:55:35.773Z,5.40
2023-04-27T08:00:34.712Z,5.50
2023-04-27T08:05:37.685Z,5.15
2023-04-27T08:10:40.668Z,5.55
2023-04-27T08:15:42.219Z,5.90
2023-04-27T08:20:46.583Z,6.33
2023-04-27T08:25:45.796Z,6.32
2023-04-27T08:30:47.353Z,6.63
2023-04-27T08:35:48.023Z,5.73
2023-04-27T08:40:53.390Z,5.75
2023-04-27T08:45:54.649Z,6.07
2023-04-27T08:50:52.505Z,5.82
2023-04-27T08:56:03.167Z,5.70
2023-04-27T09:01:11.037Z,6.30
2023-04-27T09:06:22.906Z,5.13
2023-04-27T09:11:41.031Z,5.28
2023-04-27T09:16:40.766Z,5.30
2023-04-27T09:21:49.558Z,5.55
2023-04-27T09:27:00.128Z,4.95
2023-04-27T09:32:08.720Z,6.03
2023-04-27T09:37:10.273Z,5.10
2023-04-27T09:42:12.256Z,5.00
2023-04-27T09:47:10.798Z,5.50
2023-04-27T09:52:12.767Z,4.93
2023-04-27T09:57:32.393Z,4.60
2023-04-27T10:02:46.184Z,5.00
2023-04-27T10:08:11.735Z,5.43
2023-04-27T10:13:23.084Z,5.20
2023-04-27T10:18:56.331Z,5.10
2023-04-27T10:23:55.576Z,5.35
2023-04-27T10:29:07.212Z,5.05
2023-04-27T10:34:11.949Z,5.35
2023-04-27T10:39:39.971Z,5.13
2023-04-27T10:44:45.796Z,5.35
2023-04-27T10:49:51.413Z,5.15
2023-04-27T10:54:50.560Z,6.70
2023-04-27T10:59:55.172Z,5.78
2023-04-27T11:05:07.525Z,5.10
2023-04-27T11:10:18.415Z,5.15
2023-04-27T11:15:19.727Z,5.95
2023-04-27T11:20:42.062Z,5.80
2023-04-27T11:25:46.463Z,5.53
2023-04-27T11:30:48.095Z,5.50
2023-04-27T11:35:50.829Z,6.53
2023-04-27T11:41:02.217Z,5.82
2023-04-27T11:46:11.676Z,7.55
2023-04-27T11:51:12.328Z,5.95
2023-04-27T11:56:13.644Z,5.90
2023-04-27T12:01:27.730Z,6.00
2023-04-27T12:06:33.848Z,6.00
2023-04-27T12:11:33.997Z,5.97
2023-04-27T12:16:41.477Z,5.47
2023-04-27T12:21:45.690Z,5.40
2023-04-27T12:26:50.396Z,5.20
2023-04-27T12:31:47.323Z,5.10
2023-04-27T12:36:52.793Z,4.97
2023-04-27T12:41:58.869Z,5.03
2023-04-27T12:47:02.981Z,5.68
2023-04-27T12:52:04.968Z,5.25
2023-04-27T12:57:04.168Z,6.18
2023-04-27T13:02:03.365Z,6.45
2023-04-27T13:07:02.347Z,5.43
2023-04-27T13:12:04.551Z,5.35
2023-04-27T13:17:15.440Z,5.85
2023-04-27T13:22:19.436Z,6.40
2023-04-27T13:27:17.438Z,6.43
2023-04-27T13:32:35.333Z,6.75
2023-04-27T13:37:32.662Z,6.63
2023-04-27T13:42:47.649Z,6.90
2023-04-27T13:47:47.130Z,6.28
2023-04-27T13:52:51.549Z,7.40
2023-04-27T13:57:54.097Z,7.05
2023-04-27T14:08:06.802Z,7.10
2023-04-27T14:13:09.258Z,6.43
2023-04-27T14:23:20.576Z,6.25
2023-04-27T14:28:23.160Z,6.47
2023-04-27T14:33:29.822Z,6.40
2023-04-27T14:38:30.842Z,5.78
2023-04-27T14:43:30.260Z,6.43
2023-04-27T14:48:35.732Z,5.40
2023-04-27T14:53:35.389Z,5.82
2023-04-27T14:58:37.719Z,5.88
2023-04-27T15:03:46.878Z,5.72
2023-04-27T15:08:53.417Z,5.80
2023-04-27T15:13:56.431Z,6.35
2023-04-27T15:18:58.840Z,5.75
2023-04-27T15:24:00.909Z,6.35
2023-04-27T15:29:04.595Z,6.70
2023-04-27T15:34:10.808Z,6.35
2023-04-27T15:39:10.007Z,7.03
2023-04-27T15:44:18.021Z,6.13
2023-04-27T15:49:22.742Z,6.32
2023-04-27T15:54:25.344Z,6.72
2023-04-27T15:59:25.583Z,6.90
2023-04-27T16:04:27.670Z,7.20
2023-04-27T16:09:30.393Z,6.72
2023-04-27T16:14:27.283Z,7.45
2023-04-27T16:19:29.398Z,7.10
2023-04-27T16:24:29.331Z,7.47
2023-04-27T16:29:26.806Z,6.97
2023-04-27T16:34:26.048Z,7.07
2023-04-27T16:39:31.793Z,7.22
2023-04-27T16:44:36.717Z,7.57
2023-04-27T16:49:40.607Z,7.75
2023-04-27T16:54:37.794Z,8.25
2023-04-27T16:59:37.690Z,7.70
2023-04-27T17:04:40.370Z,8.15
2023-04-27T17:09:39.834Z,8.52
2023-04-27T17:14:44.288Z,8.02
2023-04-27T17:19:45.399Z,7.70
2023-04-27T17:24:43.794Z,8.00
2023-04-27T17:29:40.632Z,8.50
2023-04-27T17:34:42.439Z,8.20
2023-04-27T17:39:45.597Z,8.40
2023-04-27T17:49:42.544Z,8.50
2023-04-27T17:54:55.076Z,8.45
2023-04-27T17:59:52.879Z,8.20
2023-04-27T18:04:55.902Z,7.00
2023-04-27T18:09:52.923Z,7.40
2023-04-27T18:14:55.591Z,7.35
2023-04-27T18:20:09.792Z,7.15
2023-04-27T18:25:11.256Z,7.15
2023-04-27T18:30:14.261Z,8.05
2023-04-27T18:35:16.227Z,7.43
2023-04-27T18:40:19.823Z,7.22
2023-04-27T18:45:29.665Z,7.72
2023-04-27T18:50:29.177Z,8.05
2023-04-27T18:55:42.412Z,8.02
2023-04-27T19:00:42.208Z,7.85
2023-04-27T19:05:43.343Z,8.07
2023-04-27T19:10:42.825Z,7.75
2023-04-27T19:15:41.951Z,9.70
2023-04-27T19:20:44.582Z,9.85
2023-04-27T19:25:41.611Z,10.57
2023-04-27T19:30:41.280Z,9.18
2023-04-27T19:35:41.600Z,9.27
2023-04-27T19:40:38.539Z,9.18
2023-04-27T19:45:39.131Z,8.05
2023-04-27T19:50:44.157Z,8.77
2023-04-27T19:55:43.756Z,8.90
2023-04-27T20:00:42.768Z,9.55
2023-04-27T20:05:45.121Z,8.85
2023-04-27T20:15:40.375Z,9.27
2023-04-27T20:20:42.773Z,8.60
2023-04-27T20:25:43.772Z,9.73
2023-04-27T20:30:44.977Z,10.48
2023-04-27T20:35:49.561Z,9.60
2023-04-27T20:40:58.550Z,9.23
2023-04-27T20:46:01.771Z,9.02
2023-04-27T20:51:01.318Z,8.63
2023-04-27T20:56:00.791Z,9.55
2023-04-27T21:01:01.484Z,9.63
2023-04-27T21:06:05.922Z,8.90
2023-04-27T21:11:08.285Z,9.32
2023-04-27T21:16:05.310Z,10.38
2023-04-27T21:21:08.111Z,9.73
2023-04-27T21:26:15.312Z,10.80
2023-04-27T21:31:14.663Z,11.70
2023-04-27T21:36:15.741Z,11.27
2023-04-27T21:41:20.555Z,12.55
2023-04-27T21:46:19.591Z,12.68
2023-04-27T21:51:19.106Z,13.07
2023-04-27T21:56:32.019Z,12.32
2023-04-27T22:06:28.514Z,12.85
2023-04-27T22:11:30.880Z,12.52
2023-04-27T22:21:46.870Z,12.00
2023-04-27T22:27:07.460Z,12.32
2023-04-27T22:32:10.467Z,10.88
2023-04-27T22:37:14.694Z,12.60
2023-04-27T22:42:15.366Z,11.88
2023-04-27T22:47:14.562Z,10.60
2023-04-27T22:52:17.346Z,11.75
2023-04-27T22:57:34.575Z,10.20
2023-04-27T23:02:34.160Z,11.30
2023-04-27T23:07:43.078Z,10.10
2023-04-27T23:12:50.075Z,12.27
2023-04-27T23:17:58.504Z,12.00
2023-04-27T23:23:00.683Z,11.98
2023-04-27T23:28:02.801Z,12.20
2023-04-27T23:33:16.400Z,10.55
2023-04-27T23:38:13.252Z,11.25
2023-04-27T23:43:12.477Z,10.82
2023-04-27T23:48:09.172Z,10.95
2023-04-27T23:53:15.944Z,10.93
2023-04-27T23:58:16.758Z,11.35
